Time;durP1;ratioP1;P1;durP2;ratioP2;P2;SDS_P1;SDS_P2;PMS_P1;PMS_P2;Temp;Humidity;BMP_temperature;BMP_pressure;BME280_temperature;BME280_humidity;BME280_pressure;Samples;Min_cycle;Max_cycle;Signal;HPM_P1;HPM_P2
2023/04/10 00:03:33;;;;;;;9.20;7.40;;;21.70;56.40;;;;;;222297;1262;24209;-50
2023/04/10 00:08:37;;;;;;;7.30;6.60;;;21.70;56.30;;;;;;222514;1262;25239;-50
2023/04/10 00:13:42;;;;;;;8.40;7.40;;;21.70;56.20;;;;;;222468;1253;22522;-51
2023/04/10 00:18:46;;;;;;;8.00;7.30;;;21.70;56.20;;;;;;222195;1251;22545;-51
2023/04/10 00:23:50;;;;;;;7.80;7.00;;;21.70;56.10;;;;;;222490;1262;23341;-49
2023/04/10 00:28:55;;;;;;;8.20;7.40;;;21.70;56.20;;;;;;222490;1260;24219;-50
2023/04/10 00:33:59;;;;;;;8.60;7.50;;;21.70;56.20;;;;;;222303;1262;24265;-48
2023/04/10 00:39:03;;;;;;;7.50;6.70;;;21.60;56.10;;;;;;222138;1262;22634;-51
2023/04/10 00:44:07;;;;;;;8.00;7.10;;;21.80;56.10;;;;;;222041;1254;22621;-52
2023/04/10 00:49:12;;;;;;;7.00;6.40;;;22.10;55.40;;;;;;222445;1262;22534;-50
2023/04/10 00:54:17;;;;;;;9.20;7.20;;;22.40;55.20;;;;;;222227;1254;22514;-54
2023/04/10 00:59:22;;;;;;;7.10;6.40;;;22.60;54.80;;;;;;222410;1254;24190;-50
2023/04/10 01:04:28;;;;;;;9.40;6.50;;;22.80;54.00;;;;;;222284;1255;22554;-52
2023/04/10 01:10:07;;;;;;;7.60;6.90;;;23.00;54.10;;;;;;222238;1255;22520;-48
2023/04/10 01:15:15;;;;;;;8.30;6.60;;;23.00;54.20;;;;;;222398;1254;25471;-50
2023/04/10 01:20:25;;;;;;;8.00;7.20;;;23.10;53.50;;;;;;222394;1255;24222;-54
2023/04/10 01:25:52;;;;;;;8.00;6.70;;;23.10;53.50;;;;;;222135;1262;25273;-51
2023/04/10 01:31:00;;;;;;;8.70;7.50;;;23.10;53.40;;;;;;222437;1262;22511;-48
2023/04/10 01:36:07;;;;;;;8.20;6.90;;;23.10;53.40;;;;;;222152;1254;22634;-51
2023/04/10 01:41:12;;;;;;;10.40;7.40;;;23.10;53.60;;;;;;222226;1262;23640;-49
2023/04/10 01:46:22;;;;;;;8.20;7.40;;;23.20;53.30;;;;;;222121;1262;22563;-50
2023/04/10 01:51:28;;;;;;;7.30;6.60;;;23.20;53.20;;;;;;222329;1255;22627;-49
2023/04/10 01:56:34;;;;;;;8.60;7.40;;;23.30;53.10;;;;;;222258;1253;24127;-53
2023/04/10 02:01:38;;;;;;;8.20;7.40;;;23.30;53.00;;;;;;222399;1255;24344;-54
2023/04/10 02:07:05;;;;;;;7.60;6.70;;;23.30;53.10;;;;;;222326;1262;22638;-49
2023/04/10 02:12:17;;;;;;;8.10;7.30;;;23.20;53.20;;;;;;222282;1256;22507;-52
2023/04/10 02:17:27;;;;;;;9.90;6.90;;;23.20;53.10;;;;;;222320;1255;22573;-51
2023/04/10 02:22:32;;;;;;;7.50;6.80;;;23.20;53.00;;;;;;222278;1255;24218;-52
2023/04/10 02:27:37;;;;;;;7.80;7.10;;;23.00;53.20;;;;;;222308;1257;24930;-53
2023/04/10 02:32:41;;;;;;;8.50;7.60;;;23.00;53.80;;;;;;222175;1255;22605;-53
2023/04/10 02:37:46;;;;;;;8.00;7.10;;;22.80;54.20;;;;;;221988;1257;22518;-51
2023/04/10 02:42:50;;;;;;;7.90;7.20;;;22.70;54.00;;;;;;222121;1262;22620;-51
2023/04/10 02:47:54;;;;;;;8.40;7.60;;;22.70;54.00;;;;;;222323;1255;24045;-53
2023/04/10 02:53:00;;;;;;;7.60;6.80;;;22.60;54.10;;;;;;222395;1269;25453;-49
2023/04/10 02:58:04;;;;;;;8.00;7.30;;;22.60;54.50;;;;;;222341;1256;24951;-54
2023/04/10 03:03:08;;;;;;;7.60;6.90;;;22.50;54.20;;;;;;222393;1246;22590;-53
2023/04/10 03:08:25;;;;;;;7.70;7.00;;;22.50;54.40;;;;;;222286;1256;22518;-52
2023/04/10 03:13:30;;;;;;;7.90;7.00;;;22.40;54.50;;;;;;222155;1265;24255;-50
2023/04/10 03:18:34;;;;;;;8.90;8.00;;;22.40;54.50;;;;;;222449;1256;22548;-54
2023/04/10 03:23:40;;;;;;;7.80;7.10;;;22.40;54.50;;;;;;222437;1262;22524;-54
2023/04/10 03:28:44;;;;;;;7.40;6.70;;;22.30;54.50;;;;;;222423;1262;22744;-50
2023/04/10 03:33:49;;;;;;;7.70;7.00;;;22.30;54.70;;;;;;222494;1262;25319;-56
2023/04/10 03:38:53;;;;;;;8.40;7.10;;;22.20;54.60;;;;;;222360;1262;22756;-51
2023/04/10 03:43:57;;;;;;;7.40;6.80;;;22.10;54.60;;;;;;222486;1252;22524;-51
2023/04/10 03:49:02;;;;;;;8.60;7.80;;;22.10;54.80;;;;;;222436;1246;22751;-49
2023/04/10 03:54:07;;;;;;;9.30;7.10;;;22.10;54.90;;;;;;222127;1261;22497;-53
2023/04/10 03:59:11;;;;;;;8.60;7.20;;;22.10;54.80;;;;;;222290;1261;22627;-47
2023/04/10 04:04:16;;;;;;;7.60;6.90;;;22.00;54.90;;;;;;222570;1262;22555;-50
2023/04/10 04:09:54;;;;;;;9.10;7.80;;;22.00;54.90;;;;;;222310;1260;24192;-51
2023/04/10 04:15:11;;;;;;;8.80;8.00;;;21.90;54.90;;;;;;222430;1260;25456;-51
2023/04/10 04:20:24;;;;;;;9.70;8.10;;;21.90;54.90;;;;;;222408;1255;23026;-50
2023/04/10 04:25:51;;;;;;;8.50;7.70;;;21.90;55.10;;;;;;222479;1255;24192;-53
2023/04/10 04:31:31;;;;;;;7.70;6.90;;;21.90;55.10;;;;;;222320;1262;22639;-50
2023/04/10 04:36:53;;;;;;;11.10;8.70;;;21.90;55.10;;;;;;220813;1271;22524;-50
2023/04/10 04:42:28;;;;;;;9.10;7.90;;;21.80;55.10;;;;;;220828;1268;22509;-49
2023/04/10 04:48:05;;;;;;;9.40;8.40;;;21.80;55.10;;;;;;220659;1270;22524;-53
2023/04/10 04:53:27;;;;;;;10.40;8.10;;;21.70;55.10;;;;;;220983;1261;25467;-49
2023/04/10 04:59:03;;;;;;;10.10;8.80;;;22.00;54.90;;;;;;221074;1260;24106;-49
2023/04/10 05:04:25;;;;;;;9.60;8.60;;;22.40;54.20;;;;;;222150;1263;22777;-50
2023/04/10 05:09:34;;;;;;;9.50;8.50;;;22.50;54.20;;;;;;222126;1255;25318;-49
2023/04/10 05:14:48;;;;;;;9.90;8.30;;;22.70;53.90;;;;;;222015;1255;22531;-51
2023/04/10 05:20:12;;;;;;;8.80;8.00;;;23.00;53.20;;;;;;221884;1262;24197;-53
2023/04/10 05:25:31;;;;;;;9.40;8.50;;;23.10;52.70;;;;;;222193;1264;24209;-51
2023/04/10 05:30:52;;;;;;;9.60;8.10;;;23.10;52.80;;;;;;222112;1259;22539;-51
2023/04/10 05:36:23;;;;;;;9.40;8.20;;;23.00;52.70;;;;;;222203;1266;22777;-51
2023/04/10 05:42:00;;;;;;;10.50;8.60;;;23.10;52.60;;;;;;221960;1269;22643;-50
2023/04/10 05:47:25;;;;;;;11.80;7.80;;;23.30;52.70;;;;;;222341;1257;24283;-51
2023/04/10 05:52:42;;;;;;;8.90;8.00;;;23.30;52.50;;;;;;222393;1269;22508;-48
2023/04/10 05:58:19;;;;;;;9.80;8.00;;;23.30;52.40;;;;;;221960;1265;22525;-52
2023/04/10 06:03:43;;;;;;;9.30;7.40;;;23.40;52.30;;;;;;221994;1256;24063;-52
2023/04/10 06:08:49;;;;;;;9.20;8.30;;;23.50;52.10;;;;;;222350;1253;22522;-52
2023/04/10 06:13:53;;;;;;;15.00;7.70;;;23.50;52.40;;;;;;221992;1262;22788;-61
2023/04/10 06:19:04;;;;;;;12.90;8.30;;;23.50;52.60;;;;;;222239;1262;24198;-60
2023/04/10 06:24:09;;;;;;;16.10;8.30;;;23.40;53.80;;;;;;222140;1256;22526;-61
2023/04/10 06:29:15;;;;;;;14.90;8.40;;;23.30;55.10;;;;;;222025;1263;235285;-61
2023/04/10 06:34:19;;;;;;;16.30;8.60;;;23.30;55.20;;;;;;222455;1262;22524;-61
2023/04/10 06:39:38;;;;;;;21.80;9.50;;;23.20;55.40;;;;;;222338;1263;22524;-61
2023/04/10 06:44:43;;;;;;;19.70;9.30;;;23.20;57.10;;;;;;222079;1256;25422;-60
2023/04/10 06:49:47;;;;;;;17.90;8.50;;;23.10;57.40;;;;;;222445;1262;22517;-59
2023/04/10 06:54:51;;;;;;;19.00;8.80;;;23.10;56.90;;;;;;222405;1254;22516;-59
2023/04/10 06:59:56;;;;;;;22.20;8.70;;;23.00;57.20;;;;;;222354;1244;22522;-57
2023/04/10 07:05:04;;;;;;;19.90;9.20;;;22.90;57.70;;;;;;222298;1256;24703;-58
2023/04/10 07:10:12;;;;;;;13.00;8.70;;;22.90;57.40;;;;;;222332;1263;22742;-60
2023/04/10 07:15:16;;;;;;;13.30;8.90;;;22.80;57.10;;;;;;222445;1269;23934;-57
2023/04/10 07:20:20;;;;;;;14.80;8.30;;;22.70;56.90;;;;;;222311;1263;22503;-59
2023/04/10 07:25:25;;;;;;;16.30;8.70;;;22.60;56.90;;;;;;222177;1262;22783;-57
2023/04/10 07:30:30;;;;;;;14.30;8.80;;;22.70;56.40;;;;;;222280;1263;23882;-60
2023/04/10 07:35:34;;;;;;;11.50;8.80;;;22.60;56.60;;;;;;222483;1257;22675;-59
2023/04/10 07:40:38;;;;;;;12.60;8.60;;;22.60;56.60;;;;;;222491;1265;24365;-59
2023/04/10 07:45:42;;;;;;;13.50;8.40;;;22.50;56.60;;;;;;222652;1269;22533;-59
2023/04/10 07:50:47;;;;;;;13.70;9.30;;;22.50;56.50;;;;;;222437;1262;22511;-59
2023/04/10 07:55:52;;;;;;;14.40;8.70;;;22.40;56.50;;;;;;222225;1263;25396;-58
2023/04/10 08:00:56;;;;;;;14.60;8.80;;;22.40;56.50;;;;;;222490;1247;22507;-61
2023/04/10 08:06:01;;;;;;;14.00;8.60;;;22.40;56.40;;;;;;222280;1265;25491;-59
2023/04/10 08:11:35;;;;;;;19.70;8.70;;;22.40;56.30;;;;;;222290;1260;23087;-54
2023/04/10 08:16:41;;;;;;;18.00;9.30;;;22.40;56.60;;;;;;222418;1265;22524;-58
2023/04/10 08:21:46;;;;;;;15.30;8.50;;;22.40;57.00;;;;;;222239;1263;26037;-54
2023/04/10 08:26:50;;;;;;;18.70;9.70;;;22.40;57.40;;;;;;222253;1265;23932;-53
2023/04/10 08:31:55;;;;;;;13.30;9.40;;;22.40;57.70;;;;;;222304;1262;22535;-56
2023/04/10 08:36:59;;;;;;;16.30;9.30;;;22.30;59.20;;;;;;222436;1248;22514;-60
2023/04/10 08:42:06;;;;;;;12.50;9.30;;;22.40;60.70;;;;;;222062;1262;24236;-58
2023/04/10 08:47:13;;;;;;;16.30;9.10;;;22.50;60.00;;;;;;221945;1268;22519;-56
2023/04/10 08:52:21;;;;;;;19.20;8.90;;;22.40;60.40;;;;;;222129;1269;22602;-57
2023/04/10 08:57:26;;;;;;;10.70;9.30;;;22.50;59.90;;;;;;222577;1262;22823;-53
2023/04/10 09:02:32;;;;;;;14.10;9.80;;;22.50;59.80;;;;;;222250;1270;24352;-55
2023/04/10 09:07:37;;;;;;;15.30;10.00;;;22.60;60.00;;;;;;222266;1268;22689;-57
2023/04/10 09:12:46;;;;;;;11.90;9.20;;;22.60;60.10;;;;;;222015;1264;22501;-57
2023/04/10 09:18:01;;;;;;;17.80;9.70;;;22.50;60.00;;;;;;222225;1269;22518;-56
2023/04/10 09:23:26;;;;;;;13.00;9.50;;;22.50;59.00;;;;;;221936;1253;22529;-56
2023/04/10 09:28:31;;;;;;;19.20;10.00;;;22.40;60.50;;;;;;222025;1263;24052;-54
2023/04/10 09:33:35;;;;;;;11.30;9.30;;;22.60;60.70;;;;;;221922;1262;22515;-57
2023/04/10 09:38:40;;;;;;;15.00;9.40;;;22.60;60.80;;;;;;222322;1265;22545;-56
2023/04/10 09:43:45;;;;;;;17.10;9.80;;;22.40;60.20;;;;;;222413;1264;22520;-55
2023/04/10 09:49:00;;;;;;;12.20;9.30;;;22.50;60.30;;;;;;222604;1262;22507;-57
2023/04/10 09:54:04;;;;;;;12.50;9.10;;;22.60;60.00;;;;;;222448;1256;25971;-54
2023/04/10 09:59:10;;;;;;;11.70;9.60;;;22.40;60.20;;;;;;222469;1262;25440;-54
2023/04/10 10:04:16;;;;;;;15.10;9.40;;;22.40;61.30;;;;;;222285;1264;22529;-55
2023/04/10 10:09:20;;;;;;;10.80;8.80;;;22.40;61.10;;;;;;222426;1263;25506;-53
2023/04/10 10:14:27;;;;;;;17.60;9.50;;;22.30;61.10;;;;;;222321;1263;23576;-53
2023/04/10 10:19:48;;;;;;;12.40;9.20;;;22.30;61.10;;;;;;222339;1262;25282;-52
2023/04/10 10:24:55;;;;;;;12.60;9.60;;;22.40;60.40;;;;;;222276;1265;24401;-54
2023/04/10 10:30:00;;;;;;;17.40;10.00;;;22.50;60.00;;;;;;222296;1263;25496;-54
2023/04/10 10:35:19;;;;;;;15.40;9.30;;;22.50;60.10;;;;;;222422;1262;22529;-52
2023/04/10 10:40:30;;;;;;;14.00;9.00;;;22.50;60.30;;;;;;222288;1260;23965;-55
2023/04/10 10:45:46;;;;;;;13.80;8.70;;;22.40;60.30;;;;;;222058;1252;22632;-52
2023/04/10 10:50:52;;;;;;;12.90;8.90;;;22.40;60.20;;;;;;222377;1263;22531;-55
2023/04/10 10:55:56;;;;;;;14.50;8.80;;;22.50;60.40;;;;;;222232;1256;22515;-57
2023/04/10 11:01:05;;;;;;;22.30;9.70;;;22.50;60.70;;;;;;222338;1261;22567;-56
2023/04/10 11:06:20;;;;;;;16.70;10.20;;;22.50;60.90;;;;;;222381;1266;22533;-57
2023/04/10 11:11:26;;;;;;;;;;;22.40;60.90;;;;;;222214;1263;22766;-56
2023/04/10 11:16:31;;;;;;;18.40;8.90;;;22.50;61.20;;;;;;222404;1253;22635;-56
2023/04/10 11:21:55;;;;;;;22.40;8.30;;;22.50;60.70;;;;;;222393;1254;23913;-57
2023/04/10 11:27:00;;;;;;;14.60;8.30;;;22.50;60.60;;;;;;222451;1264;22908;-53
2023/04/10 11:32:04;;;;;;;20.50;8.50;;;22.60;60.40;;;;;;222485;1257;24368;-55
2023/04/10 11:37:09;;;;;;;13.60;8.90;;;22.70;59.60;;;;;;222513;1264;22560;-55
2023/04/10 11:42:19;;;;;;;17.20;9.60;;;22.70;59.60;;;;;;222222;1266;22578;-55
2023/04/10 11:47:23;;;;;;;17.50;9.20;;;22.70;60.00;;;;;;222400;1255;24216;-56
2023/04/10 11:52:28;;;;;;;13.90;9.30;;;22.90;59.10;;;;;;222254;1268;22640;-54
2023/04/10 11:57:35;;;;;;;17.80;9.30;;;22.90;59.00;;;;;;222326;1244;22514;-55
2023/04/10 12:02:51;;;;;;;19.10;9.60;;;22.90;59.50;;;;;;222397;1262;26721;-56
2023/04/10 12:07:56;;;;;;;16.30;9.10;;;22.90;59.30;;;;;;222537;1262;24357;-59
2023/04/10 12:13:00;;;;;;;16.70;8.80;;;23.00;58.50;;;;;;222404;1262;25463;-56
2023/04/10 12:18:05;;;;;;;19.60;9.70;;;23.00;58.90;;;;;;222491;1265;22515;-57
2023/04/10 12:23:10;;;;;;;17.50;10.40;;;23.00;59.20;;;;;;222168;1264;22515;-55
2023/04/10 12:28:21;;;;;;;12.80;8.80;;;23.30;57.60;;;;;;222475;1254;24377;-55
2023/04/10 12:33:25;;;;;;;12.80;9.20;;;23.40;57.30;;;;;;222271;1264;22633;-56
2023/04/10 12:38:41;;;;;;;15.60;9.40;;;23.40;57.30;;;;;;222538;1264;22520;-56
2023/04/10 12:43:45;;;;;;;10.90;8.00;;;23.40;57.10;;;;;;222402;1263;22662;-56
2023/04/10 12:48:49;;;;;;;11.70;8.80;;;23.40;56.70;;;;;;222307;1257;22514;-55
2023/04/10 12:53:53;;;;;;;14.30;8.30;;;23.30;56.80;;;;;;222304;1263;22756;-56
2023/04/10 12:59:07;;;;;;;11.10;8.80;;;23.30;56.70;;;;;;222376;1259;22526;-57
2023/04/10 13:04:11;;;;;;;12.90;8.80;;;23.30;56.80;;;;;;222444;1254;22645;-60
2023/04/10 13:09:16;;;;;;;9.70;8.80;;;23.30;56.60;;;;;;222266;1262;24219;-55
2023/04/10 13:14:21;;;;;;;11.80;8.40;;;23.20;56.70;;;;;;222314;1267;24185;-57
2023/04/10 13:19:26;;;;;;;9.70;8.20;;;23.30;56.40;;;;;;222423;1263;25217;-56
2023/04/10 13:24:30;;;;;;;9.60;8.10;;;23.20;56.70;;;;;;222177;1268;23163;-57
2023/04/10 13:29:40;;;;;;;9.90;8.30;;;23.20;56.50;;;;;;222436;1269;24305;-54
2023/04/10 13:34:44;;;;;;;12.70;8.10;;;23.30;56.20;;;;;;222357;1262;25176;-53
2023/04/10 13:39:48;;;;;;;12.80;8.30;;;23.30;56.50;;;;;;222187;1269;22640;-55
2023/04/10 13:44:52;;;;;;;8.60;7.70;;;23.30;55.90;;;;;;222423;1266;25094;-56
2023/04/10 13:49:57;;;;;;;7.90;7.30;;;23.20;56.20;;;;;;222423;1269;23907;-56
2023/04/10 13:55:01;;;;;;;9.80;8.10;;;23.20;55.90;;;;;;222317;1254;23920;-56
2023/04/10 14:00:07;;;;;;;9.40;8.20;;;23.20;55.90;;;;;;222298;1265;24340;-54
2023/04/10 14:05:17;;;;;;;9.40;7.60;;;23.20;55.70;;;;;;222430;1262;24187;-56
2023/04/10 14:10:23;;;;;;;8.90;8.10;;;23.30;55.60;;;;;;222530;1259;24348;-57
2023/04/10 14:15:27;;;;;;;8.50;7.40;;;23.20;55.70;;;;;;221978;1257;25041;-57
2023/04/10 14:20:31;;;;;;;10.90;8.10;;;23.10;56.00;;;;;;222191;1269;23355;-57
2023/04/10 14:25:35;;;;;;;8.80;7.90;;;23.30;55.40;;;;;;222365;1263;26620;-53
2023/04/10 14:30:39;;;;;;;11.20;8.00;;;23.10;55.50;;;;;;222442;1264;25337;-58
2023/04/10 14:35:45;;;;;;;9.30;8.40;;;23.20;55.50;;;;;;222436;1266;25337;-57
2023/04/10 14:40:49;;;;;;;8.50;7.70;;;23.10;55.60;;;;;;222276;1261;24423;-56
2023/04/10 14:45:53;;;;;;;9.50;8.50;;;23.10;55.70;;;;;;222292;1254;22518;-56
2023/04/10 14:50:57;;;;;;;10.70;7.90;;;23.10;55.30;;;;;;222391;1266;24529;-54
2023/04/10 14:56:09;;;;;;;9.90;8.20;;;23.10;55.50;;;;;;222519;1264;23913;-55
2023/04/10 15:01:14;;;;;;;9.30;8.40;;;23.00;55.40;;;;;;222058;1257;23826;-53
2023/04/10 15:06:18;;;;;;;8.80;7.90;;;23.00;55.70;;;;;;222343;1267;25248;-58
2023/04/10 15:11:22;;;;;;;9.20;7.50;;;23.00;55.60;;;;;;222507;1267;22633;-57
2023/04/10 15:16:27;;;;;;;8.60;7.80;;;22.90;55.40;;;;;;222524;1262;22606;-57
2023/04/10 15:21:32;;;;;;;8.90;7.80;;;22.90;55.40;;;;;;222564;1254;22530;-56
2023/04/10 15:26:42;;;;;;;8.20;7.50;;;22.90;56.00;;;;;;222503;1264;23149;-55
2023/04/10 15:31:46;;;;;;;8.80;8.00;;;22.90;55.30;;;;;;222540;1264;22542;-55
2023/04/10 15:36:51;;;;;;;8.10;7.20;;;22.80;55.20;;;;;;222395;1252;23887;-56
2023/04/10 15:41:57;;;;;;;8.00;7.30;;;22.80;55.20;;;;;;222489;1258;24190;-55
2023/04/10 15:47:01;;;;;;;8.50;7.70;;;22.80;55.20;;;;;;222699;1264;24645;-55
2023/04/10 15:52:06;;;;;;;13.10;8.20;;;22.70;55.10;;;;;;222339;1251;22522;-56
2023/04/10 15:57:11;;;;;;;10.80;7.80;;;22.70;55.40;;;;;;222330;1260;22511;-55
2023/04/10 16:02:16;;;;;;;12.10;8.40;;;22.70;56.60;;;;;;222450;1264;24264;-56
2023/04/10 16:07:20;;;;;;;12.30;9.70;;;22.80;58.50;;;;;;222366;1264;22515;-55
2023/04/10 16:12:25;;;;;;;10.00;9.00;;;22.90;59.80;;;;;;222452;1263;22792;-57
2023/04/10 16:17:29;;;;;;;11.50;9.00;;;22.90;61.00;;;;;;222536;1263;22518;-57
2023/04/10 16:22:34;;;;;;;14.80;9.20;;;22.90;61.70;;;;;;222474;1263;22526;-56
2023/04/10 16:27:38;;;;;;;9.40;8.50;;;23.00;61.10;;;;;;222328;1264;22526;-53
2023/04/10 16:32:43;;;;;;;11.60;8.50;;;23.00;60.30;;;;;;222460;1260;24201;-58
2023/04/10 16:37:50;;;;;;;12.70;8.00;;;22.80;60.50;;;;;;223577;1254;22754;-56
2023/04/10 16:42:57;;;;;;;13.80;8.60;;;23.10;59.60;;;;;;222252;1260;22538;-55
2023/04/10 16:48:01;;;;;;;9.20;7.90;;;23.00;59.50;;;;;;222011;1262;24247;-55
2023/04/10 16:53:15;;;;;;;10.70;8.20;;;23.00;59.30;;;;;;225692;1262;22516;-56
2023/04/10 16:58:21;;;;;;;9.70;7.80;;;23.00;59.70;;;;;;222396;1254;22524;-58
2023/04/10 17:03:29;;;;;;;12.20;8.10;;;23.00;59.60;;;;;;221838;1267;25309;-56
2023/04/10 17:08:34;;;;;;;8.80;7.90;;;22.90;59.30;;;;;;222263;1267;25556;-54
2023/04/10 17:13:39;;;;;;;9.30;8.00;;;22.70;59.30;;;;;;222240;1254;22739;-57
2023/04/10 17:18:47;;;;;;;11.90;8.70;;;22.80;58.90;;;;;;222267;1265;26499;-57
2023/04/10 17:24:26;;;;;;;20.00;8.20;;;22.70;58.90;;;;;;221959;1258;25454;-57
2023/04/10 17:29:37;;;;;;;11.40;7.60;;;22.80;58.70;;;;;;222228;1254;25453;-55
2023/04/10 17:34:42;;;;;;;9.70;7.20;;;22.70;59.00;;;;;;222553;1262;24189;-55
2023/04/10 17:39:46;;;;;;;14.30;8.00;;;22.60;59.10;;;;;;222454;1253;24193;-57
2023/04/10 17:44:51;;;;;;;12.90;7.90;;;22.80;58.50;;;;;;222345;1262;22645;-57
2023/04/10 17:49:56;;;;;;;11.60;7.70;;;22.80;58.60;;;;;;222084;1263;25371;-55
2023/04/10 17:55:01;;;;;;;16.20;8.20;;;22.70;59.00;;;;;;222437;1254;22513;-54
2023/04/10 18:00:07;;;;;;;11.60;7.80;;;22.60;59.20;;;;;;222312;1254;22511;-56
2023/04/10 18:05:12;;;;;;;13.00;8.50;;;22.60;59.00;;;;;;222211;1264;25275;-56
2023/04/10 18:10:20;;;;;;;11.30;8.70;;;22.60;59.00;;;;;;222147;1258;22476;-53
2023/04/10 18:15:32;;;;;;;13.40;8.00;;;22.60;59.20;;;;;;222485;1253;22530;-56
2023/04/10 18:20:36;;;;;;;13.00;9.00;;;22.60;58.90;;;;;;222462;1264;24230;-56
2023/04/10 18:25:50;;;;;;;12.70;8.70;;;22.60;58.40;;;;;;221507;1264;1197894;-59
2023/04/10 18:30:55;;;;;;;10.50;8.90;;;22.60;58.80;;;;;;222135;1255;22527;-57
2023/04/10 18:35:59;;;;;;;11.80;9.70;;;22.50;58.90;;;;;;222449;1263;22524;-55
2023/04/10 18:41:04;;;;;;;10.70;9.50;;;22.50;59.10;;;;;;222332;1250;22541;-57
2023/04/10 18:46:10;;;;;;;14.20;9.80;;;22.50;58.50;;;;;;222386;1254;24203;-55
2023/04/10 18:51:15;;;;;;;11.20;10.00;;;22.50;58.60;;;;;;222370;1256;24156;-56
2023/04/10 18:56:21;;;;;;;10.90;9.60;;;22.70;58.40;;;;;;222384;1262;25532;-52
2023/04/10 19:01:26;;;;;;;14.10;9.70;;;22.50;58.00;;;;;;222305;1256;25021;-53
2023/04/10 19:06:33;;;;;;;13.50;10.10;;;22.50;58.00;;;;;;222309;1265;22543;-55
2023/04/10 19:11:41;;;;;;;18.30;9.60;;;22.50;58.40;;;;;;222200;1258;22522;-57
2023/04/10 19:16:48;;;;;;;16.30;9.90;;;22.50;57.90;;;;;;221877;1264;26665;-57
2023/04/10 19:21:52;;;;;;;10.70;9.70;;;22.60;57.20;;;;;;222525;1256;25416;-58
2023/04/10 19:27:01;;;;;;;12.30;11.00;;;22.70;57.10;;;;;;222378;1246;24270;-59
2023/04/10 19:32:06;;;;;;;13.90;11.40;;;22.50;57.20;;;;;;222452;1262;25448;-58
2023/04/10 19:37:10;;;;;;;12.20;11.00;;;22.60;57.00;;;;;;222282;1255;23774;-57
2023/04/10 19:42:14;;;;;;;16.60;11.00;;;22.50;56.90;;;;;;222443;1264;25258;-57
2023/04/10 19:47:19;;;;;;;17.20;10.20;;;22.40;56.90;;;;;;222572;1262;22636;-60
2023/04/10 19:52:25;;;;;;;12.00;10.40;;;22.40;56.90;;;;;;222559;1260;24251;-59
2023/04/10 19:57:32;;;;;;;10.80;9.80;;;22.40;57.30;;;;;;223216;1253;24351;-59
2023/04/10 20:02:42;;;;;;;12.10;10.60;;;22.40;56.80;;;;;;222565;1262;22520;-57
2023/04/10 20:07:52;;;;;;;12.60;10.20;;;22.30;56.80;;;;;;222380;1262;24302;-55
2023/04/10 20:13:00;;;;;;;19.40;11.00;;;22.40;57.70;;;;;;222087;1262;22702;-58
2023/04/10 20:18:05;;;;;;;18.10;10.50;;;22.30;58.10;;;;;;227623;1265;23011;-61
2023/04/10 20:23:11;;;;;;;15.10;11.80;;;22.40;57.10;;;;;;222512;1254;22531;-51
2023/04/10 20:28:16;;;;;;;11.70;10.30;;;22.30;57.20;;;;;;222530;1256;24438;-53
2023/04/10 20:33:20;;;;;;;15.90;10.60;;;22.20;57.10;;;;;;222546;1253;24229;-52
2023/04/10 20:38:25;;;;;;;12.50;10.40;;;22.20;57.20;;;;;;222469;1254;22604;-52
2023/04/10 20:43:32;;;;;;;12.50;10.40;;;22.20;57.10;;;;;;222489;1255;25317;-53
2023/04/10 20:48:37;;;;;;;12.20;11.00;;;22.10;57.30;;;;;;222234;1262;24197;-54
2023/04/10 20:53:42;;;;;;;11.70;10.40;;;22.10;57.10;;;;;;222047;1261;22594;-54
2023/04/10 20:58:58;;;;;;;12.30;10.70;;;22.00;57.10;;;;;;222310;1256;22588;-54
2023/04/10 21:04:03;;;;;;;15.50;11.10;;;22.00;56.90;;;;;;222201;1262;22529;-54
2023/04/10 21:09:07;;;;;;;14.20;10.90;;;22.00;56.80;;;;;;222469;1262;22620;-51
2023/04/10 21:14:13;;;;;;;11.90;10.70;;;22.00;57.30;;;;;;222060;1255;22523;-48
2023/04/10 21:19:17;;;;;;;19.10;12.30;;;21.90;57.40;;;;;;222236;1254;22605;-51
2023/04/10 21:24:21;;;;;;;15.80;11.40;;;22.00;59.00;;;;;;222260;1256;25218;-50
2023/04/10 21:29:27;;;;;;;21.00;13.00;;;22.00;59.00;;;;;;222392;1254;24121;-54
2023/04/10 21:34:32;;;;;;;18.40;13.10;;;22.10;62.90;;;;;;222401;1255;24186;-50
2023/04/10 21:39:40;;;;;;;17.80;11.60;;;22.10;62.40;;;;;;222346;1262;24056;-49
2023/04/10 21:44:45;;;;;;;17.30;13.40;;;22.10;62.20;;;;;;222131;1255;22500;-52
2023/04/10 21:49:51;;;;;;;18.50;12.50;;;22.20;61.90;;;;;;222353;1261;25381;-53
2023/04/10 21:54:57;;;;;;;14.80;11.80;;;22.10;61.60;;;;;;222314;1255;26520;-49
2023/04/10 22:00:03;;;;;;;14.30;11.40;;;22.10;61.50;;;;;;222395;1253;24180;-51
2023/04/10 22:05:08;;;;;;;15.30;11.80;;;22.10;61.30;;;;;;222304;1254;22771;-51
2023/04/10 22:10:12;;;;;;;17.50;12.10;;;22.10;61.20;;;;;;222269;1254;22522;-50
2023/04/10 22:15:18;;;;;;;15.30;12.10;;;22.10;60.80;;;;;;222329;1255;22516;-52
2023/04/10 22:20:22;;;;;;;13.40;12.00;;;22.20;61.00;;;;;;222411;1262;22524;-53
2023/04/10 22:25:26;;;;;;;13.90;12.30;;;22.30;60.80;;;;;;222367;1255;24016;-52
2023/04/10 22:30:33;;;;;;;14.10;11.40;;;22.30;60.30;;;;;;222306;1262;24193;-51
2023/04/10 22:35:37;;;;;;;14.20;11.70;;;22.20;60.40;;;;;;222418;1258;22636;-53
2023/04/10 22:40:42;;;;;;;15.10;13.20;;;22.20;60.20;;;;;;222410;1255;22520;-50
2023/04/10 22:45:45;;;;;;;16.20;13.20;;;22.10;60.90;;;;;;222406;1255;23900;-50
2023/04/10 22:50:50;;;;;;;15.00;12.30;;;22.00;60.90;;;;;;222376;1262;24350;-53
2023/04/10 22:55:54;;;;;;;13.20;11.90;;;22.10;60.70;;;;;;222623;1256;22699;-52
2023/04/10 23:00:58;;;;;;;14.20;12.50;;;22.10;60.50;;;;;;222172;1257;22533;-53
2023/04/10 23:06:03;;;;;;;15.80;13.30;;;22.10;60.90;;;;;;222398;1254;22765;-51
2023/04/10 23:11:07;;;;;;;14.70;13.30;;;22.00;60.40;;;;;;222280;1262;25204;-52
2023/04/10 23:16:11;;;;;;;15.20;13.70;;;22.00;60.60;;;;;;222360;1257;22690;-56
2023/04/10 23:21:15;;;;;;;16.30;13.40;;;22.00;60.40;;;;;;222429;1262;22504;-51
2023/04/10 23:26:19;;;;;;;18.50;14.60;;;22.00;60.40;;;;;;222394;1256;22666;-53
2023/04/10 23:31:24;;;;;;;22.60;14.70;;;22.00;62.00;;;;;;222275;1255;22564;-53
2023/04/10 23:36:28;;;;;;;15.60;14.10;;;22.10;62.30;;;;;;222350;1261;25345;-49
2023/04/10 23:41:32;;;;;;;15.90;14.10;;;22.10;61.80;;;;;;222321;1262;22511;-53
2023/04/10 23:46:36;;;;;;;14.00;12.50;;;22.20;60.90;;;;;;222423;1256;24482;-52
2023/04/10 23:51:40;;;;;;;16.20;12.90;;;22.10;60.60;;;;;;222371;1255;25460;-52
2023/04/10 23:56:44;;;;;;;18.20;13.70;;;22.10;60.30;;;;;;222346;1261;22554;-52
